Houston, TX

5:55 PM CST on December 19, 2014 (GMT -0600)
SE-Svc-Cntr | Change Station
CLOSE
Current Station
Personal Weather Station
Location: Houston, TX
Elevation: 46 ft
Nearby Weather Stations

Elev 46 ft 29.71 °N, 95.26 °W | Updated 3 seconds ago

Overcast
Overcast
53.8 °F
Feels Like 53.8 °F
N
9.0
Wind Variable Wind from WSW
Gusts 15.0 mph

Today
High -- | Low -- °F
--% Chance of Precip.
Yesterday
High -- | Low -- °F
Precip. -- in
7:10 AM 5:25 PM
Waning Crescent, 5% visible
Pressure 30.03 in
Visibility 10.0 miles
Clouds Mostly Cloudy 700 ft
Overcast 2400 ft
Dew Point 53 °F
Humidity 97%
Rainfall 1.89 in
Snow Depth Not available.
UV 0 out of 12
Pollen .80 out of 12
Air Quality Not available.
Flu Activity Not available.
SPECI KHOU 192334Z 35011KT 10SM BKN007 OVC024 13/12 A3003 RMK AO2

More Conditions Fewer Conditions

Pressure 30.03 in
Visibility 10.0 miles
Clouds Mostly Cloudy 700 ft
Overcast 2400 ft
Dew Point 53 °F
Humidity 97%
Rainfall 1.89 in
Snow Depth Not available.
UV 0 out of 12
Pollen .80 out of 12
Air Quality Not available.
Flu Activity Not available.
SPECI KHOU 192334Z 35011KT 10SM BKN007 OVC024 13/12 A3003 RMK AO2

More Conditions Fewer Conditions

10-Day Weather Forecast

Almanac

Astronomy

Dec. 19, 2014 Rise Set
Actual Time
Civil Twilight
Nautical Twilight
Astronomical Twilight
Moon
Length of Visible Light
Length of Day
Tomorrow will be .
, % of the Moon is Illuminated

Today's Extremes

State Highs State Lows

Community

WunderPhotos

Upload Photos

1,779,078 photos uploaded!

WunderBlogs® & News

Nearby

Air Quality

  Air Quality AQ Index Pollutant
Not available.

Snow Depth

Station Depth Elevation

Earthquake Activity

City Distance Mag. Time & Date
Minimum magnitude displayed is 2.5.

Coastal Water Temperatures

Place Temperature

Nearby Weather Stations